Terminal Aerodrome Forecast
Issued by NWS

Home | Current Version | Previous Version | Text Only | Print | Product List | Glossary Off
Versions: 1 2 3 4 5 6 7 8 9 10 11 12 13 14 15 16 17 18 19 20 21 22 23 24 25 26 27 28 29 30 31 32

000
FTUS43 KLOT 071600 AAC
TAFORD
TAF AMD
KORD 071600Z 0716/0818 29009KT P6SM FEW030 SCT050
     FM080100 24006KT P6SM SCT120 BKN200
     FM080900 26010KT P6SM SCT050 BKN100 PROB30 0809/0812 TSRA
      BKN100CB
     FM081300 28010KT P6SM BKN070=

USA.gov is the U.S. government's official web portal to all federal, state and local government web resources and services.